KINT/INT METAR and TAF weather

Enter ICAO airport designator
Station Type Date Time Source
KINT METAR 2019/08/22 15:54 UTC NOAA

KINT 221554Z VRB05KT 10SM CLR 31/22 A3007 RMK AO2 SLP169 T03110217


Station Type Date Time Source
KINT Decoded METAR 2019/08/22 15:54 UTC NOAA

Station name not available
Aug 22, 2019 - 11:54 AM EDT / 2019.08.22 1554 UTC
Wind: Variable at 6 MPH (5 KT):0
Visibility: 10 mile(s):0
Sky conditions: clear
Temperature: 88.0 F (31.1 C)
Heat index: 93.7 F (34.3 C):1
Dew Point: 71.1 F (21.7 C)
Relative Humidity: 57%
Pressure (altimeter): 30.07 in. Hg (1018 hPa)
ob: KINT 221554Z VRB05KT 10SM CLR 31/22 A3007 RMK AO2 SLP169 T03110217
cycle: 16

Station Type Date Time Source
KINT TAF 2019/08/22 12:22 UTC NOAA

TAF KINT 221120Z 2212/2312 00000KT P6SM SKC
FM221400 24007KT P6SM SCT050
FM222000 21006KT P6SM BKN050

Example: see airport list